KGTF/GTF METAR and TAF weather

Enter ICAO airport designator
Station Type Date Time Source
KGTF METAR 2020/02/24 06:53 UTC NOAA

KGTF 240653Z 23010KT 10SM CLR M02/M06 A2980 RMK AO2 SLP112 T10171061 401171067


Station Type Date Time Source
KGTF Decoded METAR 2020/02/24 06:53 UTC NOAA

GREAT FALLS INTERNATIONAL, MT, United States (KGTF) 47-28N 111-23W 1119M
Feb 24, 2020 - 01:53 AM EST / 2020.02.24 0653 UTC
Wind: from the SW (230 degrees) at 12 MPH (10 KT):0
Visibility: 10 mile(s):0
Sky conditions: clear
Temperature: 28.9 F (-1.7 C)
Windchill: 19 F (-7 C):1
Dew Point: 21.0 F (-6.1 C)
Relative Humidity: 71%
Pressure (altimeter): 29.8 in. Hg (1009 hPa)
ob: KGTF 240653Z 23010KT 10SM CLR M02/M06 A2980 RMK AO2 SLP112 T10171061 401171067
cycle: 7

Station Type Date Time Source
KGTF TAF 2020/02/24 06:45 UTC NOAA

TAF KGTF 240543Z 2406/2506 25015KT P6SM VCSH SCT120 BKN200
TEMPO 2407/2410 25015G25KT SCT050 BKN070
FM241000 29012G22KT P6SM SCT035 OVC050
FM241700 32012KT 4SM -SHSN BR SCT015 OVC025 PROB30 2417/2420 2SM -SN BR SCT008 OVC015
FM242000 35008KT 2SM -SN BR SCT008 OVC015 PROB30 2420/2501 1/2SM SN SCT003 OVC008
FM250100 VRB06KT 6SM -SHSN BR SCT025 OVC040 PROB30 2501/2504 4SM -SN SCT015 OVC025

Example: see airport list